createdAt,value
2019-05-20T00:00:33.673Z,2.90
2019-05-20T00:03:02.161Z,3.40
2019-05-20T00:05:30.651Z,3.40
2019-05-20T00:07:59.145Z,3.17
2019-05-20T00:10:27.619Z,3.10
2019-05-20T00:12:56.114Z,4.83
2019-05-20T00:15:24.576Z,2.40
2019-05-20T00:17:53.057Z,3.50
2019-05-20T00:20:21.524Z,2.50
2019-05-20T00:22:50.020Z,4.83
2019-05-20T00:25:18.479Z,3.43
2019-05-20T00:27:46.973Z,4.57
2019-05-20T00:30:15.719Z,3.17
2019-05-20T00:32:44.201Z,2.90
2019-05-20T00:35:12.741Z,3.23
2019-05-20T00:37:42.015Z,3.23
2019-05-20T00:40:10.496Z,2.73
2019-05-20T00:42:38.969Z,2.93
2019-05-20T00:45:07.912Z,3.70
2019-05-20T00:47:36.370Z,3.80
2019-05-20T00:50:06.111Z,2.60
2019-05-20T00:52:34.573Z,2.87
2019-05-20T00:55:03.271Z,3.00
2019-05-20T00:57:31.733Z,2.60
2019-05-20T01:00:00.239Z,2.67
2019-05-20T01:02:28.931Z,2.80
2019-05-20T01:04:57.425Z,2.77
2019-05-20T01:07:25.888Z,3.43
2019-05-20T01:09:54.439Z,4.43
2019-05-20T01:12:22.852Z,4.67
2019-05-20T01:14:51.509Z,3.17
2019-05-20T01:17:19.980Z,2.70
2019-05-20T01:19:48.467Z,3.80
2019-05-20T01:22:16.934Z,3.20
2019-05-20T01:24:45.421Z,4.97
2019-05-20T01:27:13.892Z,3.20
2019-05-20T01:29:42.455Z,2.80
2019-05-20T01:32:10.917Z,3.30
2019-05-20T01:34:39.406Z,3.03
2019-05-20T01:37:07.866Z,2.80
2019-05-20T01:39:36.358Z,2.73
2019-05-20T01:42:05.489Z,2.57
2019-05-20T01:44:33.985Z,3.20
2019-05-20T01:47:02.448Z,2.67
2019-05-20T01:49:30.931Z,2.93
2019-05-20T01:51:59.399Z,3.03
2019-05-20T01:54:27.888Z,3.17
2019-05-20T01:56:56.435Z,3.10
2019-05-20T01:59:24.929Z,3.97
2019-05-20T02:01:53.491Z,3.13
2019-05-20T02:04:21.987Z,2.80
2019-05-20T02:06:50.454Z,3.03
2019-05-20T02:09:18.953Z,3.50
2019-05-20T02:11:47.415Z,3.20
2019-05-20T02:14:17.615Z,6.20
2019-05-20T02:16:46.114Z,3.87
2019-05-20T02:19:14.601Z,4.03
2019-05-20T02:21:43.072Z,4.27
2019-05-20T02:24:11.557Z,3.53
2019-05-20T02:26:40.017Z,4.97
2019-05-20T02:29:08.510Z,4.03
2019-05-20T02:31:36.978Z,4.23
2019-05-20T02:34:05.438Z,4.00
2019-05-20T02:36:33.934Z,5.30
2019-05-20T02:39:02.391Z,3.53
2019-05-20T02:41:30.885Z,4.13
2019-05-20T02:43:59.346Z,3.50
2019-05-20T02:46:27.914Z,4.43
2019-05-20T02:48:56.366Z,3.90
2019-05-20T02:51:30.886Z,4.17
2019-05-20T02:54:00.684Z,3.87
2019-05-20T02:56:29.814Z,4.30
2019-05-20T02:58:58.397Z,4.30
2019-05-20T03:01:26.973Z,5.40
2019-05-20T03:04:10.686Z,5.00
2019-05-20T03:06:25.562Z,4.63
2019-05-20T03:08:54.029Z,5.93
2019-05-20T03:11:22.527Z,5.13
2019-05-20T03:13:50.993Z,4.37
2019-05-20T03:16:19.481Z,4.60
2019-05-20T03:18:47.951Z,4.57
2019-05-20T03:21:16.509Z,5.80
2019-05-20T03:23:44.971Z,5.20
2019-05-20T03:26:13.524Z,5.90
2019-05-20T03:28:41.984Z,6.33
2019-05-20T03:31:10.490Z,4.70
2019-05-20T03:33:38.946Z,4.90
2019-05-20T03:36:07.770Z,6.07
2019-05-20T03:38:36.235Z,6.80
2019-05-20T03:41:04.845Z,4.50
2019-05-20T03:43:33.327Z,5.10
2019-05-20T03:46:01.823Z,7.23
2019-05-20T03:48:30.289Z,6.83
2019-05-20T03:50:58.778Z,5.70
2019-05-20T03:53:27.346Z,5.67
2019-05-20T03:55:55.833Z,7.17
2019-05-20T03:58:24.293Z,5.50
2019-05-20T04:00:52.835Z,6.67
2019-05-20T04:03:21.269Z,7.07
2019-05-20T04:05:49.776Z,6.57
2019-05-20T04:08:18.298Z,7.73
2019-05-20T04:10:46.793Z,8.50
2019-05-20T04:13:15.255Z,6.70
2019-05-20T04:15:43.715Z,7.63
2019-05-20T04:18:12.281Z,6.53
2019-05-20T04:20:40.746Z,7.87
2019-05-20T04:23:09.238Z,7.43
2019-05-20T04:25:38.011Z,7.53
2019-05-20T04:28:06.500Z,7.93
2019-05-20T04:30:34.953Z,7.90
2019-05-20T04:33:03.454Z,8.13
2019-05-20T04:35:32.056Z,9.20
2019-05-20T04:38:00.566Z,8.00
2019-05-20T04:40:29.150Z,8.13
2019-05-20T04:42:57.620Z,8.57
2019-05-20T04:45:26.076Z,9.10
2019-05-20T04:47:54.575Z,11.20
2019-05-20T04:50:23.042Z,12.37
2019-05-20T04:52:51.544Z,9.50
2019-05-20T04:55:20.010Z,15.50
2019-05-20T04:57:48.503Z,8.23
2019-05-20T05:00:34.684Z,9.60
2019-05-20T05:03:03.229Z,10.00
2019-05-20T05:05:37.647Z,9.97
2019-05-20T05:08:01.803Z,12.20
2019-05-20T05:10:30.634Z,11.17
2019-05-20T05:12:59.125Z,9.97
2019-05-20T05:15:27.587Z,9.63
2019-05-20T05:17:56.077Z,13.43
2019-05-20T05:20:24.547Z,10.50
2019-05-20T05:22:53.035Z,11.53
2019-05-20T05:25:21.528Z,10.10
2019-05-20T05:27:50.078Z,10.33
2019-05-20T05:30:18.635Z,11.83
2019-05-20T05:32:47.122Z,10.87
2019-05-20T05:35:16.731Z,12.37
2019-05-20T05:37:45.301Z,11.20
2019-05-20T05:40:14.318Z,12.57
2019-05-20T05:42:42.800Z,17.90
2019-05-20T05:45:12.611Z,12.03
2019-05-20T05:47:41.098Z,10.50
2019-05-20T05:50:09.842Z,14.50
2019-05-20T05:52:38.337Z,9.93
2019-05-20T05:55:06.975Z,11.23
2019-05-20T05:57:35.510Z,12.13
2019-05-20T06:00:08.945Z,10.70
2019-05-20T06:02:37.448Z,12.47
2019-05-20T06:05:06.386Z,11.73
2019-05-20T06:07:34.893Z,13.10
2019-05-20T06:10:04.412Z,15.23
2019-05-20T06:12:32.912Z,14.00
2019-05-20T06:15:01.388Z,13.30
2019-05-20T06:17:29.847Z,14.50
2019-05-20T06:19:58.359Z,11.73
2019-05-20T06:22:26.887Z,15.03
2019-05-20T06:24:55.378Z,11.23
2019-05-20T06:27:23.846Z,11.60
2019-05-20T06:29:52.340Z,15.87
2019-05-20T06:32:20.888Z,11.93
2019-05-20T06:34:49.383Z,13.00
2019-05-20T06:37:19.566Z,14.70
2019-05-20T06:39:51.117Z,16.40
2019-05-20T06:42:18.193Z,13.20
2019-05-20T06:44:52.508Z,13.77
2019-05-20T06:47:16.793Z,14.40
2019-05-20T06:49:45.290Z,13.90
2019-05-20T06:52:13.759Z,15.50
2019-05-20T06:54:42.255Z,13.03
2019-05-20T06:57:11.044Z,17.43
2019-05-20T06:59:39.687Z,14.10
2019-05-20T07:02:08.217Z,19.50
2019-05-20T07:04:36.725Z,15.13
2019-05-20T07:07:19.900Z,18.37
2019-05-20T07:09:35.391Z,16.70
2019-05-20T07:12:03.997Z,14.40
2019-05-20T07:14:32.498Z,15.50
2019-05-20T07:17:00.961Z,15.00
2019-05-20T07:19:29.451Z,20.17
2019-05-20T07:21:57.930Z,22.27
2019-05-20T07:24:26.458Z,20.53
2019-05-20T07:26:54.907Z,19.55
2019-05-20T07:29:23.406Z,15.30
2019-05-20T07:31:51.893Z,19.63
2019-05-20T07:34:20.390Z,17.07
2019-05-20T07:37:02.681Z,18.87
2019-05-20T07:39:19.013Z,18.77
2019-05-20T07:41:47.485Z,17.60
2019-05-20T07:44:15.978Z,21.40
2019-05-20T07:46:44.506Z,17.77
2019-05-20T07:49:13.075Z,19.10
2019-05-20T07:51:42.007Z,17.27
2019-05-20T07:54:10.594Z,20.60
2019-05-20T07:56:41.969Z,21.70
2019-05-20T07:59:12.137Z,25.03
2019-05-20T08:01:40.695Z,22.32
2019-05-20T08:04:09.180Z,23.67
2019-05-20T08:06:37.726Z,23.40
2019-05-20T08:09:07.566Z,29.90
2019-05-20T08:11:36.290Z,23.60
2019-05-20T08:14:04.861Z,24.47
2019-05-20T08:16:33.599Z,28.00
2019-05-20T08:19:02.143Z,23.80
2019-05-20T08:21:30.656Z,25.33
2019-05-20T08:23:59.106Z,26.30
2019-05-20T08:26:27.689Z,25.70
2019-05-20T08:28:56.444Z,26.50
2019-05-20T08:31:25.044Z,24.40
2019-05-20T08:33:53.609Z,26.80
2019-05-20T08:36:22.079Z,28.40
2019-05-20T08:38:50.549Z,23.73
2019-05-20T08:41:19.123Z,27.83
2019-05-20T08:43:47.617Z,30.90
2019-05-20T08:46:16.092Z,27.63
2019-05-20T08:48:44.650Z,28.93
2019-05-20T08:51:13.144Z,31.67
2019-05-20T08:53:41.615Z,29.07
2019-05-20T08:56:10.121Z,27.13
2019-05-20T08:58:38.602Z,31.70
2019-05-20T09:01:07.713Z,26.10
2019-05-20T09:03:37.198Z,34.60
2019-05-20T09:06:05.732Z,28.53
2019-05-20T09:08:34.166Z,33.20
2019-05-20T09:11:02.666Z,25.57
2019-05-20T09:13:31.211Z,30.17
2019-05-20T09:15:59.623Z,30.20
2019-05-20T09:18:28.093Z,30.77
2019-05-20T09:20:56.588Z,29.07
2019-05-20T09:23:25.141Z,27.77
2019-05-20T09:25:53.718Z,32.90
2019-05-20T09:28:22.187Z,30.83
2019-05-20T09:30:50.864Z,28.30
2019-05-20T09:33:19.393Z,29.63
2019-05-20T09:35:47.901Z,34.00
2019-05-20T09:38:20.746Z,27.00
2019-05-20T09:40:48.664Z,34.03
2019-05-20T09:43:17.454Z,34.27
2019-05-20T09:45:45.998Z,33.60
2019-05-20T09:48:14.639Z,32.80
2019-05-20T09:50:43.142Z,28.03
2019-05-20T09:53:11.615Z,37.20
2019-05-20T09:55:40.181Z,36.73
2019-05-20T09:58:08.823Z,35.90
2019-05-20T10:00:37.437Z,42.73
2019-05-20T10:03:06.950Z,34.27
2019-05-20T10:05:37.436Z,40.27
2019-05-20T10:08:06.342Z,37.73
2019-05-20T10:10:34.808Z,39.40
2019-05-20T10:13:03.388Z,41.60
2019-05-20T10:15:31.915Z,36.23
2019-05-20T10:18:00.420Z,36.77
2019-05-20T10:20:28.964Z,38.40
2019-05-20T10:22:58.990Z,38.60
2019-05-20T10:25:27.457Z,41.40
2019-05-20T10:27:57.745Z,39.40
2019-05-20T10:30:26.254Z,38.70
2019-05-20T10:32:54.745Z,48.37
2019-05-20T10:35:23.284Z,33.37
2019-05-20T10:37:51.787Z,35.83
2019-05-20T10:40:20.345Z,36.50
2019-05-20T10:42:48.897Z,46.10
2019-05-20T10:45:17.430Z,43.53
2019-05-20T10:47:45.930Z,49.47
2019-05-20T10:50:14.562Z,40.50
2019-05-20T10:52:43.047Z,38.93
2019-05-20T10:55:11.753Z,41.47
2019-05-20T10:57:40.326Z,39.90
2019-05-20T11:00:09.074Z,42.67
2019-05-20T11:02:37.583Z,44.27
2019-05-20T11:05:06.693Z,44.17
2019-05-20T11:07:35.193Z,46.60
2019-05-20T11:10:07.497Z,47.30
2019-05-20T11:12:35.963Z,43.33
2019-05-20T11:15:06.064Z,51.27
2019-05-20T11:17:34.561Z,38.77
2019-05-20T11:20:04.390Z,48.80
2019-05-20T11:22:32.867Z,52.30
2019-05-20T11:25:01.425Z,54.17
2019-05-20T11:27:29.903Z,53.13
2019-05-20T11:29:58.412Z,51.97
2019-05-20T11:32:27.245Z,45.77
2019-05-20T11:34:55.728Z,60.93
2019-05-20T11:37:24.223Z,45.97
2019-05-20T11:39:52.698Z,37.50
2019-05-20T11:42:21.188Z,40.17
2019-05-20T11:44:49.655Z,45.23
2019-05-20T11:47:18.117Z,47.07
2019-05-20T11:49:46.623Z,39.80
2019-05-20T11:52:15.076Z,38.23
2019-05-20T11:54:43.615Z,46.03
2019-05-20T11:57:12.070Z,43.48
2019-05-20T11:59:40.559Z,42.60
2019-05-20T12:02:09.102Z,45.63
2019-05-20T12:04:37.591Z,42.77
2019-05-20T12:07:08.545Z,46.30
2019-05-20T12:09:48.894Z,49.90
2019-05-20T12:12:06.320Z,40.05
2019-05-20T12:14:34.885Z,50.50
2019-05-20T12:17:03.360Z,45.93
2019-05-20T12:19:31.854Z,42.10
2019-05-20T12:22:00.321Z,43.60
2019-05-20T12:24:28.827Z,50.83
2019-05-20T12:26:57.297Z,48.50
2019-05-20T12:29:25.790Z,49.43
2019-05-20T12:31:54.252Z,56.50
2019-05-20T12:34:23.328Z,49.97
2019-05-20T12:36:51.807Z,51.37
2019-05-20T12:39:20.301Z,52.63
2019-05-20T12:41:48.764Z,63.40
2019-05-20T12:44:17.266Z,63.63
2019-05-20T12:46:45.750Z,62.50
2019-05-20T12:49:14.346Z,61.93
2019-05-20T12:51:43.030Z,56.80
2019-05-20T12:54:11.534Z,69.60
2019-05-20T12:56:39.997Z,61.37
2019-05-20T12:59:08.503Z,61.33
2019-05-20T13:01:36.985Z,60.80
2019-05-20T13:04:05.639Z,58.13
2019-05-20T13:06:34.105Z,60.20
2019-05-20T13:09:02.631Z,53.27
2019-05-20T13:11:31.161Z,61.53
2019-05-20T13:13:59.674Z,52.97
2019-05-20T13:16:28.211Z,63.00
2019-05-20T13:18:56.716Z,63.30
2019-05-20T13:21:25.184Z,60.87
2019-05-20T13:23:53.690Z,63.37
2019-05-20T13:26:22.153Z,57.20
2019-05-20T13:28:50.644Z,50.97
2019-05-20T13:31:19.116Z,50.70
2019-05-20T13:33:47.591Z,56.33
2019-05-20T13:36:16.089Z,60.00
2019-05-20T13:38:44.555Z,60.33
2019-05-20T13:41:13.060Z,49.23
2019-05-20T13:43:41.530Z,53.93
2019-05-20T13:46:10.047Z,53.60
2019-05-20T13:48:38.507Z,50.20
2019-05-20T13:51:07.011Z,60.93
2019-05-20T13:53:35.542Z,58.87
2019-05-20T13:56:04.094Z,55.73
2019-05-20T13:58:32.561Z,54.00
2019-05-20T14:01:01.883Z,48.38
2019-05-20T14:03:30.359Z,54.13
2019-05-20T14:05:58.895Z,49.93
2019-05-20T14:08:27.324Z,56.60
2019-05-20T14:11:04.516Z,49.20
2019-05-20T14:13:25.928Z,46.77
2019-05-20T14:15:54.424Z,50.70
2019-05-20T14:18:22.890Z,45.00
2019-05-20T14:20:51.389Z,50.93
2019-05-20T14:23:19.863Z,42.57
2019-05-20T14:25:48.368Z,44.43
2019-05-20T14:28:16.845Z,40.93
2019-05-20T14:30:45.978Z,43.20
2019-05-20T14:33:14.474Z,37.67
2019-05-20T14:35:42.952Z,39.83
2019-05-20T14:38:11.420Z,35.00
2019-05-20T14:40:39.938Z,36.33
2019-05-20T14:43:08.403Z,32.20
2019-05-20T14:45:36.937Z,35.20
2019-05-20T14:48:05.524Z,35.37
2019-05-20T14:50:34.122Z,37.43
2019-05-20T14:53:02.586Z,36.03
2019-05-20T14:55:41.161Z,35.53
2019-05-20T14:58:01.235Z,35.83
2019-05-20T15:00:29.743Z,37.67
2019-05-20T15:02:58.223Z,36.87
2019-05-20T15:05:26.710Z,35.93
2019-05-20T15:07:55.211Z,35.40
2019-05-20T15:10:23.831Z,31.27
2019-05-20T15:12:52.305Z,32.43
2019-05-20T15:15:20.895Z,26.27
2019-05-20T15:17:49.364Z,31.40
2019-05-20T15:20:18.231Z,30.07
2019-05-20T15:22:46.702Z,31.20
2019-05-20T15:25:15.245Z,30.57
2019-05-20T15:27:43.814Z,34.90
2019-05-20T15:30:12.450Z,31.10
2019-05-20T15:32:40.946Z,34.13
2019-05-20T15:35:09.620Z,33.23
2019-05-20T15:37:38.203Z,29.57
2019-05-20T15:40:06.831Z,37.10
2019-05-20T15:42:35.375Z,36.97
2019-05-20T15:45:06.515Z,30.53
2019-05-20T15:47:35.018Z,32.80
2019-05-20T15:50:06.147Z,33.03
2019-05-20T15:52:34.210Z,30.63
2019-05-20T15:55:02.823Z,30.40
2019-05-20T15:57:31.305Z,37.20
2019-05-20T15:59:59.772Z,50.07
2019-05-20T16:02:28.262Z,45.07
2019-05-20T16:04:56.736Z,45.50
2019-05-20T16:07:25.226Z,45.33
2019-05-20T16:09:53.695Z,45.03
2019-05-20T16:12:22.197Z,40.57
2019-05-20T16:14:51.659Z,51.57
2019-05-20T16:17:20.255Z,37.30
2019-05-20T16:19:48.724Z,42.80
2019-05-20T16:22:17.218Z,42.40
2019-05-20T16:24:45.778Z,43.87
2019-05-20T16:27:14.269Z,44.20
2019-05-20T16:29:42.745Z,44.77
2019-05-20T16:32:11.249Z,52.23
2019-05-20T16:34:39.726Z,42.07
2019-05-20T16:37:08.217Z,48.57
2019-05-20T16:39:36.693Z,50.10
2019-05-20T16:42:05.261Z,46.67
2019-05-20T16:44:33.736Z,51.97
2019-05-20T16:47:02.234Z,55.93
2019-05-20T16:49:30.700Z,52.07
2019-05-20T16:51:59.262Z,51.77
2019-05-20T16:54:27.741Z,46.90
2019-05-20T16:56:56.221Z,49.13
2019-05-20T16:59:24.910Z,51.77
2019-05-20T17:01:53.363Z,54.27
2019-05-20T17:04:21.845Z,60.57
2019-05-20T17:06:50.422Z,54.87
2019-05-20T17:09:18.870Z,55.10
2019-05-20T17:11:47.352Z,55.30
2019-05-20T17:14:15.847Z,62.27
2019-05-20T17:16:44.313Z,54.67
2019-05-20T17:19:12.818Z,57.10
2019-05-20T17:21:41.281Z,65.10
2019-05-20T17:24:09.785Z,59.20
2019-05-20T17:26:38.248Z,62.50
2019-05-20T17:29:06.923Z,55.90
2019-05-20T17:31:35.385Z,62.50
2019-05-20T17:34:03.871Z,59.97
2019-05-20T17:36:32.337Z,69.13
2019-05-20T17:39:00.837Z,49.70
2019-05-20T17:41:29.314Z,57.77
2019-05-20T17:43:57.828Z,53.47
2019-05-20T17:46:26.362Z,56.23
2019-05-20T17:48:54.868Z,60.70
2019-05-20T17:51:23.333Z,64.53
2019-05-20T17:53:51.842Z,56.37
2019-05-20T17:56:20.308Z,68.27
2019-05-20T17:58:48.801Z,69.30
2019-05-20T18:01:17.274Z,68.10
2019-05-20T18:03:45.872Z,67.77
2019-05-20T18:06:14.429Z,73.67
2019-05-20T18:08:44.570Z,63.63
2019-05-20T18:11:13.039Z,68.13
2019-05-20T18:13:41.545Z,62.30
2019-05-20T18:16:10.020Z,83.07
2019-05-20T18:18:38.596Z,65.23
2019-05-20T18:21:07.787Z,68.67
2019-05-20T18:23:36.290Z,78.03
2019-05-20T18:26:04.829Z,75.13
2019-05-20T18:28:33.326Z,65.50
2019-05-20T18:31:01.794Z,76.00
2019-05-20T18:33:30.289Z,78.23
2019-05-20T18:35:58.764Z,82.77
2019-05-20T18:38:27.306Z,76.50
2019-05-20T18:40:55.803Z,71.17
2019-05-20T18:43:24.279Z,73.87
2019-05-20T18:45:52.776Z,82.17
2019-05-20T18:48:21.267Z,77.70
2019-05-20T18:50:49.775Z,82.87
2019-05-20T18:53:18.235Z,70.50
2019-05-20T18:55:46.736Z,71.03
2019-05-20T18:58:15.261Z,82.77
2019-05-20T19:00:43.696Z,82.57
2019-05-20T19:03:12.166Z,90.97
2019-05-20T19:05:40.658Z,80.17
2019-05-20T19:08:09.222Z,75.17
2019-05-20T19:10:37.747Z,85.97
2019-05-20T19:13:06.287Z,80.00
2019-05-20T19:15:34.843Z,87.50
2019-05-20T19:18:03.305Z,72.40
2019-05-20T19:20:31.799Z,72.50
2019-05-20T19:23:00.271Z,81.53
2019-05-20T19:25:37.305Z,80.57
2019-05-20T19:27:58.868Z,81.00
2019-05-20T19:30:27.366Z,86.13
2019-05-20T19:32:55.833Z,83.33
2019-05-20T19:35:24.334Z,87.13
2019-05-20T19:37:52.811Z,83.83
2019-05-20T19:40:21.394Z,86.73
2019-05-20T19:42:49.870Z,81.90
2019-05-20T19:45:18.446Z,86.53
2019-05-20T19:47:46.918Z,86.57
2019-05-20T19:50:15.654Z,80.17
2019-05-20T19:52:44.153Z,80.97
2019-05-20T19:55:12.657Z,80.83
2019-05-20T19:57:41.110Z,89.70
2019-05-20T20:00:10.849Z,87.60
2019-05-20T20:02:39.323Z,80.83
2019-05-20T20:05:08.189Z,82.67
2019-05-20T20:07:36.661Z,88.53
2019-05-20T20:10:06.413Z,75.92
2019-05-20T20:12:34.886Z,79.70
2019-05-20T20:15:04.053Z,82.20
2019-05-20T20:17:32.524Z,85.17
2019-05-20T20:20:00.989Z,84.30
2019-05-20T20:22:29.491Z,88.37
2019-05-20T20:24:57.965Z,82.33
2019-05-20T20:27:26.531Z,85.23
2019-05-20T20:29:55.020Z,78.33
2019-05-20T20:32:37.440Z,82.73
2019-05-20T20:34:53.645Z,70.73
2019-05-20T20:37:22.148Z,64.90
2019-05-20T20:39:50.630Z,62.17
2019-05-20T20:42:19.120Z,60.27
2019-05-20T20:44:47.597Z,65.00
2019-05-20T20:47:16.179Z,64.33
2019-05-20T20:49:44.585Z,71.05
2019-05-20T20:52:13.097Z,69.58
2019-05-20T20:54:41.572Z,80.30
2019-05-20T20:57:10.069Z,66.47
2019-05-20T20:59:38.549Z,80.83
2019-05-20T21:02:07.062Z,76.70
2019-05-20T21:04:35.561Z,78.47
2019-05-20T21:07:04.030Z,80.47
2019-05-20T21:09:32.564Z,73.47
2019-05-20T21:12:01.038Z,69.63
2019-05-20T21:14:29.520Z,73.05
2019-05-20T21:16:57.999Z,68.37
2019-05-20T21:19:26.481Z,73.27
2019-05-20T21:21:55.317Z,72.57
2019-05-20T21:24:24.044Z,80.87
2019-05-20T21:26:52.553Z,74.80
2019-05-20T21:29:21.023Z,75.75
2019-05-20T21:31:49.520Z,77.53
2019-05-20T21:34:17.986Z,78.00
2019-05-20T21:36:48.055Z,75.63
2019-05-20T21:39:16.757Z,72.78
2019-05-20T21:41:45.265Z,72.92
2019-05-20T21:44:13.745Z,81.12
2019-05-20T21:46:42.265Z,78.35
2019-05-20T21:49:10.725Z,76.15
2019-05-20T21:51:39.222Z,74.20
2019-05-20T21:54:07.698Z,65.83
2019-05-20T21:56:36.188Z,76.67
2019-05-20T21:59:04.659Z,70.83
2019-05-20T22:01:33.235Z,72.60
2019-05-20T22:04:01.707Z,73.02
2019-05-20T22:06:30.175Z,70.40
2019-05-20T22:08:58.679Z,84.67
2019-05-20T22:11:27.154Z,80.80
2019-05-20T22:13:55.663Z,81.67
2019-05-20T22:16:24.887Z,77.67
2019-05-20T22:18:53.392Z,67.85
2019-05-20T22:21:23.501Z,75.92
2019-05-20T22:23:56.409Z,73.02
2019-05-20T22:26:24.878Z,80.60
2019-05-20T22:28:53.384Z,70.12
2019-05-20T22:31:21.863Z,66.73
2019-05-20T22:33:50.359Z,70.28
2019-05-20T22:36:18.831Z,69.87
2019-05-20T22:38:47.402Z,78.25
2019-05-20T22:41:15.879Z,75.47
2019-05-20T22:43:44.384Z,75.83
2019-05-20T22:46:13.663Z,80.28
2019-05-20T22:48:42.165Z,73.57
2019-05-20T22:51:10.636Z,77.50
2019-05-20T22:53:39.145Z,66.80
2019-05-20T22:56:07.609Z,65.17
2019-05-20T22:58:38.508Z,75.87
2019-05-20T23:01:06.347Z,69.40
2019-05-20T23:03:34.850Z,75.83
2019-05-20T23:06:03.314Z,77.13
2019-05-20T23:08:31.817Z,74.50
2019-05-20T23:11:00.285Z,78.93
2019-05-20T23:13:28.779Z,79.47
2019-05-20T23:15:57.277Z,84.03
2019-05-20T23:18:25.732Z,77.63
2019-05-20T23:20:54.214Z,88.72
2019-05-20T23:23:22.790Z,87.20
2019-05-20T23:25:52.937Z,81.13
2019-05-20T23:28:21.423Z,89.20
2019-05-20T23:30:49.861Z,77.27
2019-05-20T23:33:18.385Z,75.07
2019-05-20T23:35:46.837Z,77.50
2019-05-20T23:38:15.332Z,78.93
2019-05-20T23:40:43.798Z,81.80
2019-05-20T23:43:12.297Z,73.40
2019-05-20T23:45:40.764Z,70.47
2019-05-20T23:48:09.261Z,75.57
2019-05-20T23:50:37.725Z,76.40
2019-05-20T23:53:06.232Z,78.15
2019-05-20T23:55:34.712Z,75.10
2019-05-20T23:58:03.209Z,76.67
